Aviation Digital Data Service (ADDS)

Output produced by METARs form (0233 UTC 26 July 2016)
found at http://www.aviationweather.gov/adds/metars/
 
METAR text: KSBP 260156Z 31009KT 10SM CLR 21/12 A2990 RMK AO2 SLP122 T02110122
Conditions at: KSBP (SAN LUIS OBISPO , CA, US) observed 0156 UTC 26 July 2016
Temperature: 21.1°C (70°F)
Dewpoint: 12.2°C (54°F) [RH = 57%]
Pressure (altimeter): 29.90 inches Hg (1012.6 mb)
[Sea-level pressure: 1012.2 mb]
Winds: from the NW (310 degrees) at 10 MPH (9 knots; 4.7 m/s)
Visibility: 10 or more miles (16+ km)
Ceiling: at least 12,000 feet AGL
Clouds: sky clear below 12,000 feet AGL
Weather: no significant weather observed at this time

METAR text: KSBP 260056Z 31009KT 10SM CLR 23/12 A2991 RMK AO2 SLP126 T02280122
Conditions at: KSBP (SAN LUIS OBISPO , CA, US) observed 0056 UTC 26 July 2016
Temperature: 22.8°C (73°F)
Dewpoint: 12.2°C (54°F) [RH = 51%]
Pressure (altimeter): 29.91 inches Hg (1013.0 mb)
[Sea-level pressure: 1012.6 mb]
Winds: from the NW (310 degrees) at 10 MPH (9 knots; 4.7 m/s)
Visibility: 10 or more miles (16+ km)
Ceiling: at least 12,000 feet AGL
Clouds: sky clear below 12,000 feet AGL
Weather: no significant weather observed at this time

METAR text: KSBP 252356Z 31010KT 10SM CLR 24/13 A2992 RMK AO2 SLP132 T02440128 10272 20239 56013
Conditions at: KSBP (SAN LUIS OBISPO , CA, US) observed 2356 UTC 25 July 2016
Temperature: 24.4°C (76°F)
Dewpoint: 12.8°C (55°F) [RH = 48%]
Pressure (altimeter): 29.92 inches Hg (1013.3 mb)
[Sea-level pressure: 1013.2 mb]
Winds: from the NW (310 degrees) at 12 MPH (10 knots; 5.2 m/s)
Visibility: 10 or more miles (16+ km)
Ceiling: at least 12,000 feet AGL
Clouds: sky clear below 12,000 feet AGL
Weather: no significant weather observed at this time

METAR text: KSBP 252256Z 31010KT 10SM CLR 26/13 A2994 RMK AO2 SLP136 T02610128
Conditions at: KSBP (SAN LUIS OBISPO , CA, US) observed 2256 UTC 25 July 2016
Temperature: 26.1°C (79°F)
Dewpoint: 12.8°C (55°F) [RH = 44%]
Pressure (altimeter): 29.94 inches Hg (1014.0 mb)
[Sea-level pressure: 1013.6 mb]
Winds: from the NW (310 degrees) at 12 MPH (10 knots; 5.2 m/s)
Visibility: 10 or more miles (16+ km)
Ceiling: at least 12,000 feet AGL
Clouds: sky clear below 12,000 feet AGL
Weather: no significant weather observed at this time

METAR text: KSBP 252156Z VRB05KT 10SM CLR 26/13 A2995 RMK AO2 SLP139 T02560133
Conditions at: KSBP (SAN LUIS OBISPO , CA, US) observed 2156 UTC 25 July 2016
Temperature: 25.6°C (78°F)
Dewpoint: 13.3°C (56°F) [RH = 47%]
Pressure (altimeter): 29.95 inches Hg (1014.3 mb)
[Sea-level pressure: 1013.9 mb]
Winds: variable direction winds at 6 MPH (5 knots; 2.6 m/s)
Visibility: 10 or more miles (16+ km)
Ceiling: at least 12,000 feet AGL
Clouds: sky clear below 12,000 feet AGL
Weather: no significant weather observed at this time

METAR text: KSBP 252056Z 31009KT 10SM CLR 26/12 A2996 RMK AO2 SLP145 T02560122 58004
Conditions at: KSBP (SAN LUIS OBISPO , CA, US) observed 2056 UTC 25 July 2016
Temperature: 25.6°C (78°F)
Dewpoint: 12.2°C (54°F) [RH = 43%]
Pressure (altimeter): 29.96 inches Hg (1014.6 mb)
[Sea-level pressure: 1014.5 mb]
Winds: from the NW (310 degrees) at 10 MPH (9 knots; 4.7 m/s)
Visibility: 10 or more miles (16+ km)
Ceiling: at least 12,000 feet AGL
Clouds: sky clear below 12,000 feet AGL
Weather: no significant weather observed at this time

METAR text: KSBP 251956Z 30009KT 10SM CLR 25/13 A2997 RMK AO2 SLP148 T02500133
Conditions at: KSBP (SAN LUIS OBISPO , CA, US) observed 1956 UTC 25 July 2016
Temperature: 25.0°C (77°F)
Dewpoint: 13.3°C (56°F) [RH = 48%]
Pressure (altimeter): 29.97 inches Hg (1015.0 mb)
[Sea-level pressure: 1014.8 mb]
Winds: from the WNW (300 degrees) at 10 MPH (9 knots; 4.7 m/s)
Visibility: 10 or more miles (16+ km)
Ceiling: at least 12,000 feet AGL
Clouds: sky clear below 12,000 feet AGL
Weather: no significant weather observed at this time

METAR text: KSBP 251856Z 30006KT 10SM CLR 26/13 A2997 RMK AO2 SLP145 T02560128
Conditions at: KSBP (SAN LUIS OBISPO , CA, US) observed 1856 UTC 25 July 2016
Temperature: 25.6°C (78°F)
Dewpoint: 12.8°C (55°F) [RH = 45%]
Pressure (altimeter): 29.97 inches Hg (1015.0 mb)
[Sea-level pressure: 1014.5 mb]
Winds: from the WNW (300 degrees) at 7 MPH (6 knots; 3.1 m/s)
Visibility: 10 or more miles (16+ km)
Ceiling: at least 12,000 feet AGL
Clouds: sky clear below 12,000 feet AGL
Weather: no significant weather observed at this time